Time;durP1;ratioP1;P1;durP2;ratioP2;P2;SDS_P1;SDS_P2;PMS_P1;PMS_P2;Temp;Humidity;BMP_temperature;BMP_pressure;BME280_temperature;BME280_humidity;BME280_pressure;Samples;Min_cycle;Max_cycle;Signal;HPM_P1;HPM_P2
2024/03/25 00:00:25;;;;;;;4.88;4.47;;;;;;;;;;6269724;28;20068;-74
2024/03/25 00:03:26;;;;;;;3.28;3.08;;;;;;;;;;6297352;28;20047;-74
2024/03/25 00:06:27;;;;;;;7.50;6.97;;;;;;;;;;6309009;28;20044;-74
2024/03/25 00:09:28;;;;;;;7.68;6.95;;;;;;;;;;6276281;28;20185;-74
2024/03/25 00:12:29;;;;;;;6.53;5.18;;;;;;;;;;6274517;28;20129;-74
2024/03/25 00:15:30;;;;;;;5.00;4.70;;;;;;;;;;6277174;28;20052;-73
2024/03/25 00:18:32;;;;;;;5.20;4.90;;;;;;;;;;6275288;28;20070;-74
2024/03/25 00:21:33;;;;;;;5.85;5.35;;;;;;;;;;6291808;28;20098;-74
2024/03/25 00:24:35;;;;;;;4.30;4.00;;;;;;;;;;6275546;28;20069;-74
2024/03/25 00:27:36;;;;;;;3.08;2.88;;;;;;;;;;6295212;28;20101;-74
2024/03/25 00:30:37;;;;;;;4.60;4.20;;;;;;;;;;6295954;28;20739;-74
2024/03/25 00:33:38;;;;;;;4.32;4.03;;;;;;;;;;6283604;28;20040;-74
2024/03/25 00:36:40;;;;;;;5.82;5.43;;;;;;;;;;6296347;28;20055;-74
2024/03/25 00:39:42;;;;;;;4.15;3.63;;;;;;;;;;6279421;28;20127;-74
2024/03/25 00:42:43;;;;;;;5.15;4.30;;;;;;;;;;6289263;28;20047;-74
2024/03/25 00:45:44;;;;;;;5.15;4.75;;;;;;;;;;6301457;28;20040;-74
2024/03/25 00:48:45;;;;;;;4.35;3.95;;;;;;;;;;6245155;28;20078;-73
2024/03/25 00:51:46;;;;;;;4.18;3.95;;;;;;;;;;6286246;28;20040;-73
2024/03/25 00:54:47;;;;;;;4.13;3.83;;;;;;;;;;6276434;28;20044;-73
2024/03/25 00:57:49;;;;;;;3.88;3.58;;;;;;;;;;6276228;28;20043;-74
2024/03/25 01:00:50;;;;;;;6.13;4.20;;;;;;;;;;6293253;28;20047;-74
2024/03/25 01:03:52;;;;;;;4.00;3.65;;;;;;;;;;6281506;28;20080;-74
2024/03/25 01:06:53;;;;;;;5.00;4.70;;;;;;;;;;6291405;28;20052;-74
2024/03/25 01:09:54;;;;;;;4.57;4.18;;;;;;;;;;6281641;28;20044;-74
2024/03/25 01:12:57;;;;;;;5.03;3.35;;;;;;;;;;6261026;28;20051;-74
2024/03/25 01:15:58;;;;;;;4.85;4.45;;;;;;;;;;6296324;28;20514;-73
2024/03/25 01:18:59;;;;;;;4.13;3.80;;;;;;;;;;6260945;28;20055;-74
2024/03/25 01:22:00;;;;;;;4.93;4.63;;;;;;;;;;6325570;27;20077;-74
2024/03/25 01:25:01;;;;;;;5.05;4.68;;;;;;;;;;6287176;28;20067;-74
2024/03/25 01:28:03;;;;;;;4.28;3.63;;;;;;;;;;6294635;28;20046;-74
2024/03/25 01:31:04;;;;;;;4.80;4.50;;;;;;;;;;6304108;28;20048;-73
2024/03/25 01:34:05;;;;;;;4.22;3.92;;;;;;;;;;6257391;28;20048;-73
2024/03/25 01:37:07;;;;;;;4.13;3.83;;;;;;;;;;6296738;28;20048;-74
2024/03/25 01:40:10;;;;;;;3.80;3.50;;;;;;;;;;6264306;28;20621;-74
2024/03/25 01:43:11;;;;;;;5.03;4.72;;;;;;;;;;6279555;28;20734;-73
2024/03/25 01:46:13;;;;;;;3.95;3.70;;;;;;;;;;6255058;28;20032;-73
2024/03/25 01:49:14;;;;;;;3.47;3.25;;;;;;;;;;6277434;28;20048;-73
2024/03/25 01:52:15;;;;;;;4.63;4.32;;;;;;;;;;6272595;28;20075;-73
2024/03/25 01:55:26;;;;;;;4.95;4.38;;;;;;;;;;6283192;28;20044;-73
2024/03/25 01:58:27;;;;;;;3.97;3.67;;;;;;;;;;6276408;28;20044;-73
2024/03/25 02:01:30;;;;;;;4.35;4.05;;;;;;;;;;6285193;28;20178;-73
2024/03/25 02:04:31;;;;;;;5.80;5.50;;;;;;;;;;6292479;28;20051;-72
2024/03/25 02:07:36;;;;;;;6.32;3.45;;;;;;;;;;6255864;28;20051;-73
2024/03/25 02:10:38;;;;;;;4.40;4.00;;;;;;;;;;6280937;28;20051;-74
2024/03/25 02:13:39;;;;;;;4.72;4.43;;;;;;;;;;6257714;28;20040;-74
2024/03/25 02:16:40;;;;;;;4.80;4.40;;;;;;;;;;6293980;28;20039;-74
2024/03/25 02:19:41;;;;;;;3.75;3.50;;;;;;;;;;6290641;28;20082;-74
2024/03/25 02:22:42;;;;;;;7.72;7.25;;;;;;;;;;6263472;28;20048;-74
2024/03/25 02:25:43;;;;;;;2.72;2.53;;;;;;;;;;6277821;28;20600;-73
2024/03/25 02:28:44;;;;;;;2.28;2.08;;;;;;;;;;6286661;28;20680;-74
2024/03/25 02:31:47;;;;;;;5.80;5.45;;;;;;;;;;6279568;28;20055;-73
2024/03/25 02:34:50;;;;;;;4.25;3.95;;;;;;;;;;6296810;28;20036;-73
2024/03/25 02:37:52;;;;;;;4.35;4.05;;;;;;;;;;6281843;28;20048;-73
2024/03/25 02:40:54;;;;;;;4.22;3.95;;;;;;;;;;6262408;28;20071;-73
2024/03/25 02:43:55;;;;;;;4.63;4.32;;;;;;;;;;6284407;28;20040;-73
2024/03/25 02:46:56;;;;;;;3.85;3.55;;;;;;;;;;6246142;28;20071;-74
2024/03/25 02:49:58;;;;;;;7.68;7.28;;;;;;;;;;6280387;28;20040;-73
2024/03/25 02:52:59;;;;;;;3.95;3.65;;;;;;;;;;6289861;28;20592;-73
2024/03/25 02:56:00;;;;;;;2.65;2.30;;;;;;;;;;6277341;28;20578;-73
2024/03/25 02:59:02;;;;;;;7.13;6.72;;;;;;;;;;6308124;28;20135;-74
2024/03/25 03:02:03;;;;;;;5.30;5.00;;;;;;;;;;6292706;28;20526;-73
2024/03/25 03:05:05;;;;;;;3.42;3.22;;;;;;;;;;6291669;28;20072;-74
2024/03/25 03:08:06;;;;;;;3.63;3.42;;;;;;;;;;6241007;28;20633;-72
2024/03/25 03:11:07;;;;;;;4.35;4.05;;;;;;;;;;6262423;28;20135;-73
2024/03/25 03:14:08;;;;;;;5.05;4.65;;;;;;;;;;6272219;28;20139;-73
2024/03/25 03:17:10;;;;;;;6.55;6.15;;;;;;;;;;6260368;28;20040;-73
2024/03/25 03:20:11;;;;;;;4.57;4.20;;;;;;;;;;6297382;28;20040;-74
2024/03/25 03:23:12;;;;;;;4.22;3.92;;;;;;;;;;6238313;28;20158;-73
2024/03/25 03:26:13;;;;;;;4.78;4.07;;;;;;;;;;6258755;28;20048;-73
2024/03/25 03:29:15;;;;;;;4.47;4.15;;;;;;;;;;6290737;28;20044;-73
2024/03/25 03:32:16;;;;;;;2.70;2.03;;;;;;;;;;6301752;28;20434;-73
2024/03/25 03:35:17;;;;;;;3.85;3.55;;;;;;;;;;6271066;28;20047;-73
2024/03/25 03:38:18;;;;;;;5.78;5.40;;;;;;;;;;6294199;28;20700;-73
2024/03/25 03:41:19;;;;;;;5.10;4.78;;;;;;;;;;6276024;28;20187;-73
2024/03/25 03:44:20;;;;;;;4.40;4.10;;;;;;;;;;6255390;28;20285;-74
2024/03/25 03:47:21;;;;;;;2.80;2.58;;;;;;;;;;6294635;28;20419;-74
2024/03/25 03:50:23;;;;;;;4.78;4.47;;;;;;;;;;6291549;28;20123;-73
2024/03/25 03:53:23;;;;;;;5.80;5.40;;;;;;;;;;6291957;28;20062;-73
2024/03/25 03:56:25;;;;;;;4.68;4.28;;;;;;;;;;6278258;28;20052;-73
2024/03/25 03:59:26;;;;;;;2.88;2.33;;;;;;;;;;6271916;28;20113;-73
2024/03/25 04:02:28;;;;;;;5.90;5.47;;;;;;;;;;6269460;28;20109;-73
2024/03/25 04:05:30;;;;;;;6.40;5.90;;;;;;;;;;6279167;28;20221;-73
2024/03/25 04:08:31;;;;;;;3.72;2.70;;;;;;;;;;6279415;28;20579;-73
2024/03/25 04:11:35;;;;;;;5.35;4.90;;;;;;;;;;6289865;28;20040;-72
2024/03/25 04:14:37;;;;;;;7.85;7.20;;;;;;;;;;6289968;28;20074;-74
2024/03/25 04:17:38;;;;;;;5.82;5.32;;;;;;;;;;6279802;28;20048;-73
2024/03/25 04:20:40;;;;;;;7.68;7.00;;;;;;;;;;6289848;28;20545;-74
2024/03/25 04:23:43;;;;;;;10.45;9.63;;;;;;;;;;6261923;28;20051;-74
2024/03/25 04:26:45;;;;;;;8.27;7.57;;;;;;;;;;6285860;28;20138;-74
2024/03/25 04:29:47;;;;;;;7.75;7.05;;;;;;;;;;6255202;28;20048;-74
2024/03/25 04:32:48;;;;;;;6.63;5.68;;;;;;;;;;6260242;28;20071;-74
2024/03/25 04:35:49;;;;;;;8.07;7.40;;;;;;;;;;6274819;28;20126;-74
2024/03/25 04:38:50;;;;;;;10.65;9.25;;;;;;;;;;6264706;28;20098;-74
2024/03/25 04:41:52;;;;;;;8.18;7.40;;;;;;;;;;6292726;28;20048;-74
2024/03/25 04:44:54;;;;;;;10.45;8.25;;;;;;;;;;6279060;28;20071;-74
2024/03/25 04:47:55;;;;;;;11.98;10.30;;;;;;;;;;6282592;28;20051;-74
2024/03/25 04:50:56;;;;;;;13.07;11.77;;;;;;;;;;6302320;28;20052;-73
2024/03/25 04:53:57;;;;;;;13.00;11.73;;;;;;;;;;6303332;28;20626;-74
2024/03/25 04:56:59;;;;;;;14.20;11.63;;;;;;;;;;6275791;28;20055;-74
2024/03/25 05:00:03;;;;;;;13.63;10.20;;;;;;;;;;6248573;28;20043;-73
2024/03/25 05:03:05;;;;;;;14.05;12.60;;;;;;;;;;6290958;28;20079;-73
2024/03/25 05:06:10;;;;;;;14.00;11.32;;;;;;;;;;6309749;28;20109;-72
2024/03/25 05:09:11;;;;;;;13.30;10.43;;;;;;;;;;6275224;28;20052;-73
2024/03/25 05:12:13;;;;;;;11.48;8.48;;;;;;;;;;6271452;28;20073;-73
2024/03/25 05:15:14;;;;;;;7.85;7.10;;;;;;;;;;6271831;28;20048;-73
2024/03/25 05:18:17;;;;;;;14.00;10.55;;;;;;;;;;6257962;28;20518;-73
2024/03/25 05:21:18;;;;;;;9.05;5.97;;;;;;;;;;6277417;28;20745;-73
2024/03/25 05:24:19;;;;;;;12.25;10.88;;;;;;;;;;6292487;28;20045;-71
2024/03/25 05:27:21;;;;;;;13.07;10.15;;;;;;;;;;6258163;28;20055;-72
2024/03/25 05:30:23;;;;;;;12.27;10.70;;;;;;;;;;6258185;28;20048;-73
2024/03/25 05:33:24;;;;;;;14.05;10.45;;;;;;;;;;6254821;28;20040;-73
2024/03/25 05:36:25;;;;;;;10.90;8.35;;;;;;;;;;6293429;28;20075;-72
2024/03/25 05:39:26;;;;;;;16.52;9.23;;;;;;;;;;6287205;28;20047;-73
2024/03/25 05:42:27;;;;;;;12.95;10.52;;;;;;;;;;6273430;28;20048;-73
2024/03/25 05:45:29;;;;;;;12.65;10.00;;;;;;;;;;6303456;28;20067;-71
2024/03/25 05:48:31;;;;;;;15.60;13.93;;;;;;;;;;6286364;28;20056;-73
2024/03/25 05:51:33;;;;;;;13.32;9.75;;;;;;;;;;6278265;28;20036;-71
2024/03/25 05:54:34;;;;;;;11.35;10.18;;;;;;;;;;6270098;28;20182;-72
2024/03/25 05:57:36;;;;;;;16.17;11.02;;;;;;;;;;6293693;28;20040;-72
2024/03/25 06:00:37;;;;;;;10.98;7.93;;;;;;;;;;6255451;28;20818;-71
2024/03/25 06:03:38;;;;;;;11.25;10.10;;;;;;;;;;6284202;28;20574;-72
2024/03/25 06:06:40;;;;;;;10.48;7.75;;;;;;;;;;6291137;28;20036;-72
2024/03/25 06:09:41;;;;;;;15.35;13.35;;;;;;;;;;6294210;28;20086;-72
2024/03/25 06:12:42;;;;;;;13.05;11.57;;;;;;;;;;6263249;28;20127;-72
2024/03/25 06:15:43;;;;;;;14.20;12.77;;;;;;;;;;6274101;28;20047;-72
2024/03/25 06:18:45;;;;;;;9.60;8.27;;;;;;;;;;6289679;28;20036;-71
2024/03/25 06:21:46;;;;;;;10.75;9.57;;;;;;;;;;6287870;28;20048;-73
2024/03/25 06:24:50;;;;;;;11.82;10.23;;;;;;;;;;6284887;28;20044;-74
2024/03/25 06:27:51;;;;;;;11.20;10.00;;;;;;;;;;6292084;28;20063;-74
2024/03/25 06:34:17;;;;;;;10.00;9.02;;;;;;;;;;6287046;28;20619;-74
2024/03/25 06:37:18;;;;;;;24.73;18.92;;;;;;;;;;6253387;28;20056;-72
2024/03/25 06:40:21;;;;;;;10.32;8.85;;;;;;;;;;6274237;28;20123;-73
2024/03/25 06:43:22;;;;;;;12.32;9.95;;;;;;;;;;6255921;28;20055;-73
2024/03/25 06:46:23;;;;;;;14.20;12.70;;;;;;;;;;6269504;28;20534;-73
2024/03/25 06:49:24;;;;;;;11.93;9.70;;;;;;;;;;6292065;28;20105;-72
2024/03/25 06:52:25;;;;;;;13.32;11.13;;;;;;;;;;6270093;28;20048;-73
2024/03/25 06:55:28;;;;;;;9.52;8.63;;;;;;;;;;6254525;28;20048;-72
2024/03/25 06:58:29;;;;;;;10.88;9.80;;;;;;;;;;6268059;28;20726;-73
2024/03/25 07:01:30;;;;;;;10.90;9.27;;;;;;;;;;6268195;28;20044;-72
2024/03/25 07:04:32;;;;;;;9.02;7.60;;;;;;;;;;6255940;28;20048;-73
2024/03/25 07:07:36;;;;;;;23.08;15.00;;;;;;;;;;6284830;28;20097;-72
2024/03/25 07:10:38;;;;;;;15.95;8.90;;;;;;;;;;6284708;28;20036;-73
2024/03/25 07:13:39;;;;;;;12.88;9.55;;;;;;;;;;6268994;28;20040;-73
2024/03/25 07:16:40;;;;;;;9.02;7.97;;;;;;;;;;6270116;28;20102;-73
2024/03/25 07:19:41;;;;;;;9.18;8.20;;;;;;;;;;6286926;28;20987;-72
2024/03/25 07:22:42;;;;;;;10.70;8.18;;;;;;;;;;6271237;28;20055;-73
2024/03/25 07:25:44;;;;;;;11.80;7.97;;;;;;;;;;6272325;28;20136;-72
2024/03/25 07:28:45;;;;;;;11.60;10.43;;;;;;;;;;6320818;28;20047;-72
2024/03/25 07:31:46;;;;;;;10.93;8.68;;;;;;;;;;6257212;28;20052;-73
2024/03/25 07:34:47;;;;;;;13.00;9.80;;;;;;;;;;6265858;28;20044;-72
2024/03/25 07:37:51;;;;;;;14.13;10.88;;;;;;;;;;6286822;28;20044;-72
2024/03/25 07:40:52;;;;;;;11.73;9.30;;;;;;;;;;6255692;28;20058;-72
2024/03/25 07:43:53;;;;;;;10.13;8.52;;;;;;;;;;6255038;28;20059;-72
2024/03/25 07:46:55;;;;;;;13.25;10.63;;;;;;;;;;6265261;28;20047;-72
2024/03/25 07:49:56;;;;;;;10.52;8.25;;;;;;;;;;6304784;28;20040;-72
2024/03/25 07:52:57;;;;;;;11.60;9.00;;;;;;;;;;6288141;28;20043;-73
2024/03/25 07:55:58;;;;;;;11.68;6.90;;;;;;;;;;6256404;28;20399;-73
2024/03/25 07:59:00;;;;;;;9.38;8.30;;;;;;;;;;6271442;28;20051;-73
2024/03/25 08:02:02;;;;;;;11.38;8.43;;;;;;;;;;6287358;28;20792;-71
2024/03/25 08:05:03;;;;;;;8.32;7.35;;;;;;;;;;6273271;28;20051;-72
2024/03/25 08:08:05;;;;;;;11.32;9.02;;;;;;;;;;6290400;28;20070;-72
2024/03/25 08:11:06;;;;;;;9.65;7.97;;;;;;;;;;6291385;28;20112;-72
2024/03/25 08:14:07;;;;;;;12.43;11.15;;;;;;;;;;6292825;28;20048;-72
2024/03/25 08:17:08;;;;;;;8.90;7.93;;;;;;;;;;6297090;28;20040;-72
2024/03/25 08:20:09;;;;;;;10.00;9.00;;;;;;;;;;6293939;28;20055;-71
2024/03/25 08:23:11;;;;;;;10.32;5.82;;;;;;;;;;6296167;28;20770;-72
2024/03/25 08:26:12;;;;;;;13.82;12.45;;;;;;;;;;6275989;28;20123;-71
2024/03/25 08:29:13;;;;;;;9.70;8.88;;;;;;;;;;6274932;28;20048;-72
2024/03/25 08:32:14;;;;;;;9.15;8.20;;;;;;;;;;6292102;28;20173;-72
2024/03/25 08:35:15;;;;;;;12.85;9.45;;;;;;;;;;6289036;28;20060;-73
2024/03/25 08:38:17;;;;;;;10.27;9.35;;;;;;;;;;6314992;28;20040;-72
2024/03/25 08:41:18;;;;;;;10.38;8.25;;;;;;;;;;6272036;28;20055;-73
2024/03/25 08:44:19;;;;;;;12.38;11.27;;;;;;;;;;6312883;28;20051;-72
2024/03/25 08:47:20;;;;;;;10.27;9.32;;;;;;;;;;6293791;28;20062;-72
2024/03/25 08:50:21;;;;;;;10.70;9.60;;;;;;;;;;6298411;28;20063;-72
2024/03/25 08:53:23;;;;;;;12.27;10.55;;;;;;;;;;6277135;28;20075;-73
2024/03/25 08:56:24;;;;;;;12.63;11.38;;;;;;;;;;6276362;28;20544;-73
2024/03/25 08:59:25;;;;;;;7.30;5.30;;;;;;;;;;6280874;28;20833;-72
2024/03/25 09:02:26;;;;;;;9.05;8.20;;;;;;;;;;6261087;28;20048;-72
2024/03/25 09:05:27;;;;;;;10.10;8.70;;;;;;;;;;6277903;28;20141;-72
2024/03/25 09:08:36;;;;;;;10.95;7.97;;;;;;;;;;6278583;28;20059;-73
2024/03/25 09:11:37;;;;;;;11.60;10.07;;;;;;;;;;6303166;28;20155;-72
2024/03/25 09:14:38;;;;;;;9.75;8.10;;;;;;;;;;6272578;28;20076;-72
2024/03/25 09:17:40;;;;;;;8.13;7.28;;;;;;;;;;6289403;28;20044;-72
2024/03/25 09:20:41;;;;;;;11.15;10.15;;;;;;;;;;6297013;28;20054;-72
2024/03/25 09:23:43;;;;;;;12.65;8.57;;;;;;;;;;6272078;28;20595;-72
2024/03/25 09:26:45;;;;;;;7.95;6.93;;;;;;;;;;6275599;28;20633;-72
2024/03/25 09:29:47;;;;;;;12.10;10.45;;;;;;;;;;6275445;28;20056;-72
2024/03/25 09:32:48;;;;;;;9.88;8.35;;;;;;;;;;6307953;28;20059;-72
2024/03/25 09:35:49;;;;;;;16.15;14.52;;;;;;;;;;6288613;28;20576;-72
2024/03/25 09:38:52;;;;;;;10.65;9.55;;;;;;;;;;6289274;28;20045;-72
2024/03/25 09:41:55;;;;;;;11.63;7.93;;;;;;;;;;6279000;28;20044;-72
2024/03/25 09:44:56;;;;;;;9.63;8.73;;;;;;;;;;6272311;28;20047;-72
2024/03/25 09:47:58;;;;;;;11.95;9.63;;;;;;;;;;6289670;28;20143;-73
2024/03/25 09:51:02;;;;;;;11.35;10.23;;;;;;;;;;6290036;28;20052;-72
2024/03/25 09:54:04;;;;;;;9.82;8.88;;;;;;;;;;6259581;28;20051;-73
2024/03/25 09:57:07;;;;;;;13.25;10.30;;;;;;;;;;6271676;28;20043;-72
2024/03/25 10:00:14;;;;;;;9.77;8.77;;;;;;;;;;6274085;28;20044;-72
2024/03/25 10:03:31;;;;;;;10.52;9.32;;;;;;;;;;6273527;28;20807;-73
2024/03/25 10:06:32;;;;;;;8.70;7.85;;;;;;;;;;6283665;28;20040;-73
2024/03/25 10:09:33;;;;;;;9.25;8.35;;;;;;;;;;6275607;28;20178;-73
2024/03/25 10:12:36;;;;;;;10.48;9.50;;;;;;;;;;6270981;28;20052;-73
2024/03/25 10:15:37;;;;;;;10.30;9.30;;;;;;;;;;6256002;28;20632;-72
2024/03/25 10:18:38;;;;;;;8.68;7.65;;;;;;;;;;6286174;28;20067;-72
2024/03/25 10:21:40;;;;;;;9.05;8.27;;;;;;;;;;6260982;28;20056;-72
2024/03/25 10:24:45;;;;;;;9.80;8.90;;;;;;;;;;6296176;28;20051;-72
2024/03/25 10:27:59;;;;;;;8.45;7.65;;;;;;;;;;6289979;28;20054;-72
2024/03/25 10:31:04;;;;;;;10.27;9.35;;;;;;;;;;6273783;28;20051;-72
2024/03/25 10:34:05;;;;;;;8.77;5.95;;;;;;;;;;6268695;28;20488;-72
2024/03/25 10:37:09;;;;;;;10.77;9.65;;;;;;;;;;6273013;28;20593;-72
2024/03/25 10:40:12;;;;;;;8.93;8.10;;;;;;;;;;6264769;28;20060;-72
2024/03/25 10:43:14;;;;;;;9.75;8.95;;;;;;;;;;6326737;28;20081;-73
2024/03/25 10:46:19;;;;;;;9.00;8.20;;;;;;;;;;6294883;28;20040;-72
2024/03/25 10:49:27;;;;;;;9.40;8.52;;;;;;;;;;6272249;28;20044;-72
2024/03/25 10:52:29;;;;;;;8.20;7.43;;;;;;;;;;6249344;28;20056;-72
2024/03/25 10:55:31;;;;;;;8.43;7.45;;;;;;;;;;6259288;28;20036;-72
2024/03/25 10:58:33;;;;;;;7.75;6.70;;;;;;;;;;6273674;28;20048;-71
2024/03/25 11:01:35;;;;;;;7.57;6.88;;;;;;;;;;6272944;28;20039;-72
2024/03/25 11:04:37;;;;;;;7.05;6.15;;;;;;;;;;6289722;28;20146;-72
2024/03/25 11:07:40;;;;;;;7.85;6.75;;;;;;;;;;6294945;28;20040;-72
2024/03/25 11:10:46;;;;;;;9.30;8.40;;;;;;;;;;6282657;28;20047;-73
2024/03/25 11:13:48;;;;;;;9.90;9.20;;;;;;;;;;6251775;28;20181;-73
2024/03/25 11:16:53;;;;;;;8.00;6.97;;;;;;;;;;6325865;27;20032;-72
2024/03/25 11:19:54;;;;;;;4.05;3.28;;;;;;;;;;6272828;28;20457;-72
2024/03/25 11:22:56;;;;;;;5.78;5.13;;;;;;;;;;6296500;28;20397;-72
2024/03/25 11:25:57;;;;;;;9.75;7.57;;;;;;;;;;6257117;28;20047;-72
2024/03/25 11:28:58;;;;;;;8.07;7.28;;;;;;;;;;6288740;28;20042;-72
2024/03/25 11:32:03;;;;;;;6.97;6.38;;;;;;;;;;6294954;28;20047;-73
2024/03/25 11:35:05;;;;;;;10.05;7.25;;;;;;;;;;6305109;28;20040;-73
2024/03/25 11:38:07;;;;;;;10.02;9.13;;;;;;;;;;6307399;28;20067;-72
2024/03/25 11:41:08;;;;;;;6.47;5.18;;;;;;;;;;6258059;28;20122;-72
2024/03/25 11:44:10;;;;;;;7.65;6.95;;;;;;;;;;6281248;28;20844;-72
2024/03/25 11:47:12;;;;;;;7.38;6.65;;;;;;;;;;6282546;28;20043;-73
2024/03/25 11:50:16;;;;;;;4.40;3.95;;;;;;;;;;6269139;28;20480;-72
2024/03/25 11:53:17;;;;;;;9.20;7.47;;;;;;;;;;6281179;28;20048;-72
2024/03/25 11:56:18;;;;;;;8.50;7.70;;;;;;;;;;6275656;28;20044;-73
2024/03/25 11:59:19;;;;;;;10.82;8.25;;;;;;;;;;6314555;28;20138;-73
2024/03/25 12:02:21;;;;;;;7.32;6.82;;;;;;;;;;6263482;28;20052;-74
2024/03/25 12:05:23;;;;;;;8.70;7.55;;;;;;;;;;6293419;28;20040;-74
2024/03/25 12:08:26;;;;;;;8.38;7.65;;;;;;;;;;6278209;28;20054;-73
2024/03/25 12:11:27;;;;;;;7.90;7.30;;;;;;;;;;6276792;28;20036;-74
2024/03/25 12:14:29;;;;;;;7.28;6.53;;;;;;;;;;6264455;28;20075;-73
2024/03/25 12:17:31;;;;;;;7.45;6.75;;;;;;;;;;6275118;28;20048;-73
2024/03/25 12:20:32;;;;;;;6.88;6.38;;;;;;;;;;6257536;28;20105;-73
2024/03/25 12:23:34;;;;;;;8.35;7.53;;;;;;;;;;6276906;28;20048;-73
2024/03/25 12:26:35;;;;;;;6.75;6.10;;;;;;;;;;6274618;28;20047;-73
2024/03/25 12:29:36;;;;;;;6.20;5.70;;;;;;;;;;6281353;28;20125;-72
2024/03/25 12:32:41;;;;;;;8.93;8.05;;;;;;;;;;6313065;28;20044;-73
2024/03/25 12:35:42;;;;;;;5.93;5.28;;;;;;;;;;6296833;28;20120;-73
2024/03/25 12:38:43;;;;;;;7.28;4.28;;;;;;;;;;6294970;28;20430;-72
2024/03/25 12:41:44;;;;;;;14.32;8.93;;;;;;;;;;6289964;28;20040;-72
2024/03/25 12:44:45;;;;;;;9.65;7.13;;;;;;;;;;6274722;28;20044;-73
2024/03/25 12:47:47;;;;;;;9.75;7.15;;;;;;;;;;6293599;28;20125;-73
2024/03/25 12:50:48;;;;;;;6.88;3.83;;;;;;;;;;6308674;28;20411;-71
2024/03/25 12:53:49;;;;;;;7.75;7.05;;;;;;;;;;6290473;28;20040;-73
2024/03/25 12:56:50;;;;;;;6.65;4.15;;;;;;;;;;6272419;28;20680;-73
2024/03/25 12:59:52;;;;;;;6.20;5.70;;;;;;;;;;6289304;28;20123;-73
2024/03/25 13:02:53;;;;;;;7.80;7.10;;;;;;;;;;6256597;28;20189;-73
2024/03/25 13:05:57;;;;;;;6.63;6.05;;;;;;;;;;6259368;28;20058;-74
2024/03/25 13:08:58;;;;;;;6.63;6.03;;;;;;;;;;6275272;28;20044;-73
2024/03/25 13:12:00;;;;;;;6.95;6.35;;;;;;;;;;6274245;28;20051;-72
2024/03/25 13:15:00;;;;;;;6.18;5.68;;;;;;;;;;6289024;28;20123;-72
2024/03/25 13:18:02;;;;;;;6.43;5.93;;;;;;;;;;6306475;28;20048;-73
2024/03/25 13:21:03;;;;;;;6.43;5.93;;;;;;;;;;6258412;28;20137;-73
2024/03/25 13:24:05;;;;;;;7.57;5.80;;;;;;;;;;6275991;28;20105;-73
2024/03/25 13:27:07;;;;;;;7.78;7.18;;;;;;;;;;6288360;28;20070;-73
2024/03/25 13:30:08;;;;;;;5.28;4.88;;;;;;;;;;6292729;28;20036;-73
2024/03/25 13:33:10;;;;;;;3.35;2.20;;;;;;;;;;6289083;28;20521;-73
2024/03/25 13:36:11;;;;;;;5.50;5.00;;;;;;;;;;6253839;28;20036;-73
2024/03/25 13:39:12;;;;;;;6.65;6.05;;;;;;;;;;6276371;28;20123;-73
2024/03/25 13:42:13;;;;;;;5.35;4.85;;;;;;;;;;6268430;28;20091;-72
2024/03/25 13:45:15;;;;;;;5.63;5.13;;;;;;;;;;6291237;28;20706;-73
2024/03/25 13:48:16;;;;;;;5.43;5.03;;;;;;;;;;6275213;28;20553;-73
2024/03/25 13:51:17;;;;;;;6.22;5.68;;;;;;;;;;6272998;28;20036;-73
2024/03/25 13:54:18;;;;;;;4.93;4.53;;;;;;;;;;6259436;28;20051;-73
2024/03/25 13:57:20;;;;;;;5.25;4.88;;;;;;;;;;6285687;28;20044;-73
2024/03/25 14:00:22;;;;;;;7.13;6.63;;;;;;;;;;6290942;28;20048;-73
2024/03/25 14:03:23;;;;;;;6.18;5.57;;;;;;;;;;6303204;28;20220;-72
2024/03/25 14:06:24;;;;;;;5.95;5.45;;;;;;;;;;6278032;28;20062;-72
2024/03/25 14:09:26;;;;;;;9.75;8.75;;;;;;;;;;6277449;28;20048;-72
2024/03/25 14:12:27;;;;;;;7.10;6.47;;;;;;;;;;6273183;28;20052;-72
2024/03/25 14:15:29;;;;;;;6.47;5.88;;;;;;;;;;6275176;28;20043;-72
2024/03/25 14:18:30;;;;;;;6.15;5.65;;;;;;;;;;6291030;28;20044;-72
2024/03/25 14:21:31;;;;;;;7.65;5.68;;;;;;;;;;6285593;28;20052;-72
2024/03/25 14:24:33;;;;;;;7.65;7.05;;;;;;;;;;6270833;28;20752;-72
2024/03/25 14:27:34;;;;;;;7.00;6.28;;;;;;;;;;6262454;28;20111;-72
2024/03/25 14:30:35;;;;;;;6.97;6.55;;;;;;;;;;6272227;28;20043;-72
2024/03/25 14:33:36;;;;;;;2.40;1.70;;;;;;;;;;6255526;28;20541;-72
2024/03/25 14:36:38;;;;;;;4.88;4.25;;;;;;;;;;6300968;28;20039;-73
2024/03/25 14:39:39;;;;;;;4.38;4.07;;;;;;;;;;6288384;28;20044;-72
2024/03/25 14:42:40;;;;;;;2.47;1.33;;;;;;;;;;6286854;28;20586;-73
2024/03/25 14:45:42;;;;;;;4.65;4.30;;;;;;;;;;6270973;28;20522;-72
2024/03/25 14:48:44;;;;;;;4.75;3.97;;;;;;;;;;6271620;28;20052;-73
2024/03/25 14:51:45;;;;;;;5.03;4.72;;;;;;;;;;6289611;28;20063;-72
2024/03/25 14:54:46;;;;;;;6.47;5.63;;;;;;;;;;6280027;28;20045;-73
2024/03/25 14:57:47;;;;;;;2.70;1.90;;;;;;;;;;6255771;28;20797;-73
2024/03/25 15:00:50;;;;;;;6.25;5.75;;;;;;;;;;6268898;28;20040;-73
2024/03/25 15:03:51;;;;;;;5.85;5.43;;;;;;;;;;6251989;28;20048;-74
2024/03/25 15:06:52;;;;;;;4.70;4.38;;;;;;;;;;6272294;28;20197;-74
2024/03/25 15:09:53;;;;;;;2.88;2.13;;;;;;;;;;6269519;28;20411;-73
2024/03/25 15:12:54;;;;;;;5.88;4.93;;;;;;;;;;6271758;28;20047;-73
2024/03/25 15:15:55;;;;;;;5.28;3.65;;;;;;;;;;6288326;28;20467;-73
2024/03/25 15:18:56;;;;;;;6.40;5.55;;;;;;;;;;6271338;28;20053;-72
2024/03/25 15:21:57;;;;;;;5.47;5.03;;;;;;;;;;6268854;28;20630;-73
2024/03/25 15:24:58;;;;;;;5.68;5.18;;;;;;;;;;6272413;28;20624;-73
2024/03/25 15:27:59;;;;;;;6.35;5.85;;;;;;;;;;6275788;28;20586;-73
2024/03/25 15:31:01;;;;;;;5.88;5.47;;;;;;;;;;6285615;28;20101;-73
2024/03/25 15:34:03;;;;;;;5.13;4.72;;;;;;;;;;6290655;28;20063;-74
2024/03/25 15:37:05;;;;;;;4.65;4.35;;;;;;;;;;6300745;28;20181;-73
2024/03/25 15:40:09;;;;;;;6.00;5.43;;;;;;;;;;6269980;28;20059;-73
2024/03/25 15:43:10;;;;;;;6.70;6.13;;;;;;;;;;6291483;28;20078;-73
2024/03/25 15:46:12;;;;;;;6.97;6.43;;;;;;;;;;6292502;28;20040;-72
2024/03/25 15:49:13;;;;;;;5.32;4.93;;;;;;;;;;6277053;28;20635;-72
2024/03/25 15:52:14;;;;;;;6.47;5.97;;;;;;;;;;6255123;28;20055;-71
2024/03/25 15:55:15;;;;;;;6.28;5.40;;;;;;;;;;6292948;28;20185;-72
2024/03/25 15:58:16;;;;;;;7.60;6.85;;;;;;;;;;6269583;28;20041;-73
2024/03/25 16:01:17;;;;;;;9.43;6.10;;;;;;;;;;6286778;28;20048;-73
2024/03/25 16:04:19;;;;;;;8.15;7.10;;;;;;;;;;6272120;28;20048;-71
2024/03/25 16:07:20;;;;;;;16.52;7.47;;;;;;;;;;6286899;28;20086;-71
2024/03/25 16:10:28;;;;;;;7.78;6.80;;;;;;;;;;6273811;28;20055;-71
2024/03/25 16:13:29;;;;;;;6.57;5.55;;;;;;;;;;6289145;28;20048;-71
2024/03/25 16:16:30;;;;;;;7.13;6.43;;;;;;;;;;6288763;28;20033;-71
2024/03/25 16:19:33;;;;;;;7.15;6.45;;;;;;;;;;6271873;28;20331;-72
2024/03/25 16:22:35;;;;;;;10.10;6.40;;;;;;;;;;6303046;28;20044;-73
2024/03/25 16:25:36;;;;;;;7.63;6.75;;;;;;;;;;6272694;28;20098;-71
2024/03/25 16:28:37;;;;;;;8.43;7.18;;;;;;;;;;6290694;28;20518;-73
2024/03/25 16:31:38;;;;;;;7.97;6.03;;;;;;;;;;6309690;28;20416;-73
2024/03/25 16:34:39;;;;;;;6.72;6.20;;;;;;;;;;6271744;28;20071;-72
2024/03/25 16:37:40;;;;;;;8.70;7.68;;;;;;;;;;6324950;28;20042;-73
2024/03/25 16:40:42;;;;;;;9.13;6.40;;;;;;;;;;6276988;28;20085;-73
2024/03/25 16:43:43;;;;;;;6.22;5.63;;;;;;;;;;6273865;28;20056;-74
2024/03/25 16:46:44;;;;;;;8.18;7.15;;;;;;;;;;6295368;28;20048;-75
2024/03/25 16:49:45;;;;;;;6.85;5.50;;;;;;;;;;6273461;28;20040;-73
2024/03/25 16:52:46;;;;;;;8.25;7.45;;;;;;;;;;6289573;28;20055;-72
2024/03/25 16:55:52;;;;;;;8.05;6.57;;;;;;;;;;6271850;28;20036;-73
2024/03/25 16:58:53;;;;;;;7.57;6.35;;;;;;;;;;6302668;28;20039;-73
2024/03/25 17:01:55;;;;;;;7.85;6.82;;;;;;;;;;6256378;28;20132;-72
2024/03/25 17:04:56;;;;;;;7.32;6.70;;;;;;;;;;6296388;28;20044;-72
2024/03/25 17:07:57;;;;;;;10.25;7.28;;;;;;;;;;6295725;28;20055;-72
2024/03/25 17:10:57;;;;;;;11.20;8.02;;;;;;;;;;6276778;28;20044;-72
2024/03/25 17:13:59;;;;;;;7.30;5.68;;;;;;;;;;6272995;28;20105;-72
2024/03/25 17:17:01;;;;;;;6.53;5.90;;;;;;;;;;6312381;28;20036;-72
2024/03/25 17:20:08;;;;;;;8.52;7.47;;;;;;;;;;6276282;28;20094;-72
2024/03/25 17:23:09;;;;;;;7.22;6.18;;;;;;;;;;6290557;28;20048;-73
2024/03/25 17:26:11;;;;;;;11.23;10.15;;;;;;;;;;6275926;28;20040;-73
2024/03/25 17:29:12;;;;;;;17.88;12.38;;;;;;;;;;6271593;28;20044;-72
2024/03/25 17:32:13;;;;;;;16.98;9.82;;;;;;;;;;6259289;28;20113;-72
2024/03/25 17:35:14;;;;;;;14.82;10.68;;;;;;;;;;6292957;28;20051;-72
2024/03/25 17:38:15;;;;;;;16.45;10.32;;;;;;;;;;6280437;28;20043;-72
2024/03/25 17:41:16;;;;;;;16.58;12.98;;;;;;;;;;6291647;28;20051;-72
2024/03/25 17:44:17;;;;;;;26.27;14.90;;;;;;;;;;6280561;28;20056;-72
2024/03/25 17:47:18;;;;;;;28.30;18.23;;;;;;;;;;6284957;28;20131;-72
2024/03/25 17:50:20;;;;;;;26.08;15.48;;;;;;;;;;6290717;28;20058;-73
2024/03/25 17:53:22;;;;;;;16.42;11.35;;;;;;;;;;6276030;28;20044;-71
2024/03/25 17:56:23;;;;;;;11.38;9.02;;;;;;;;;;6291262;28;20048;-71
2024/03/25 17:59:24;;;;;;;15.43;9.88;;;;;;;;;;6282384;28;20047;-72
2024/03/25 18:02:25;;;;;;;16.38;12.80;;;;;;;;;;6321007;27;20048;-71